CheckWX is a tool to help pilots better visualize weather data.  It is not intended as a substitute for an official pre-flight weather briefing.

18:14:41 UTC

KHND METAR
Henderson Executive Airport
Las Vegas, Nevada, USA
Current

19 mins ago

KHND 241756Z VRB06KT 10SM CLR 27/02 A3003 RMK AO2 SLP148 T02720017 10272 20139 58003 $
Observed
Apr-24 @ 17:56 UTC
Wind
  • Variable at 6 KTS
Visibility
10 SM
Flight Rules
VFR
Cloud Levels
  • Clear skies
Temperature
27°C / 81°F
Dewpoint
C / 36°F
Humidity
20%
Altimeter
30.03" Hg
Pressure
1016.92 hPa
Previous

1 hour ago

KHND 241656Z 06005KT 10SM CLR 26/02 A3004 RMK AO2 SLP152 T02560017 $
Observed
Apr-24 @ 16:56 UTC
Wind
  • 060° at 5 KTS
Visibility
10 SM
Flight Rules
VFR
Cloud Levels
  • Clear skies
Temperature
26°C / 79°F
Dewpoint
C / 36°F
Humidity
21%
Altimeter
30.04" Hg
Pressure
1017.32 hPa
Previous

2 hours ago

KHND 241556Z 00000KT 10SM CLR 24/03 A3004 RMK AO2 SLP153 T02440028 $
Observed
Apr-24 @ 15:56 UTC
Visibility
10 SM
Flight Rules
VFR
Cloud Levels
  • Clear skies
Temperature
24°C / 75°F
Dewpoint
C / 37°F
Humidity
25%
Altimeter
30.04" Hg
Pressure
1017.32 hPa